createdAt,value
2024-01-17T00:04:55.758Z,6.70
2024-01-17T00:09:59.277Z,5.30
2024-01-17T00:15:03.215Z,5.80
2024-01-17T00:20:08.025Z,6.60
2024-01-17T00:25:11.285Z,7.10
2024-01-17T00:30:34.724Z,6.40
2024-01-17T00:35:57.851Z,7.90
2024-01-17T00:41:20.890Z,6.50
2024-01-17T00:46:43.704Z,8.70
2024-01-17T00:52:06.476Z,8.80
2024-01-17T00:57:29.550Z,9.20
2024-01-17T01:02:52.512Z,9.40
2024-01-17T01:08:15.663Z,8.30
2024-01-17T01:13:38.644Z,8.00
2024-01-17T01:19:01.780Z,8.60
2024-01-17T01:24:25.133Z,7.90
2024-01-17T01:29:48.661Z,8.70
2024-01-17T01:35:11.874Z,8.50
2024-01-17T01:40:34.726Z,6.70
2024-01-17T01:45:57.753Z,10.00
2024-01-17T01:51:20.667Z,7.80
2024-01-17T01:56:47.639Z,9.10
2024-01-17T02:02:10.606Z,7.70
2024-01-17T02:07:35.552Z,10.40
2024-01-17T02:12:58.763Z,7.00
2024-01-17T02:18:22.018Z,9.90
2024-01-17T02:23:49.502Z,11.90
2024-01-17T02:29:12.310Z,9.40
2024-01-17T02:34:35.724Z,11.70
2024-01-17T02:39:38.838Z,10.80
2024-01-17T02:44:41.691Z,10.60
2024-01-17T02:49:44.736Z,14.30
2024-01-17T02:54:48.266Z,12.50
2024-01-17T03:00:11.609Z,11.30
2024-01-17T03:05:34.727Z,12.40
2024-01-17T03:10:57.471Z,13.40
2024-01-17T03:16:20.539Z,11.00
2024-01-17T03:21:43.313Z,10.70
2024-01-17T03:27:06.182Z,10.80
2024-01-17T03:32:29.240Z,12.40
2024-01-17T03:37:52.211Z,14.10
2024-01-17T03:43:15.100Z,12.40
2024-01-17T03:48:38.360Z,13.50
2024-01-17T03:54:02.110Z,11.70
2024-01-17T03:59:06.612Z,12.30
2024-01-17T04:04:09.581Z,15.50
2024-01-17T04:09:12.485Z,14.20
2024-01-17T04:14:16.006Z,12.50
2024-01-17T04:19:19.090Z,14.70
2024-01-17T04:24:21.954Z,10.90
2024-01-17T04:29:24.961Z,7.00
2024-01-17T04:34:28.268Z,16.60
2024-01-17T04:39:31.205Z,15.10
2024-01-17T04:44:34.531Z,15.60
2024-01-17T04:49:37.845Z,10.80
2024-01-17T04:54:41.284Z,11.10
2024-01-17T04:59:44.437Z,16.20
2024-01-17T05:04:47.629Z,10.90
2024-01-17T05:09:50.859Z,11.40
2024-01-17T05:14:54.008Z,13.10
2024-01-17T05:19:57.312Z,8.80
2024-01-17T05:25:00.209Z,13.60
2024-01-17T05:30:03.729Z,11.30
2024-01-17T05:35:07.806Z,15.60
2024-01-17T05:40:15.322Z,13.00
2024-01-17T05:45:18.490Z,13.70
2024-01-17T05:50:21.546Z,14.90
2024-01-17T05:55:24.606Z,11.40
2024-01-17T06:00:27.987Z,12.20
2024-01-17T06:05:31.260Z,11.50
2024-01-17T06:10:34.250Z,13.00
2024-01-17T06:15:37.991Z,14.50
2024-01-17T06:20:41.898Z,10.30
2024-01-17T06:25:45.064Z,15.30
2024-01-17T06:30:47.886Z,9.00
2024-01-17T06:35:51.285Z,10.80
2024-01-17T06:40:54.551Z,15.10
2024-01-17T06:45:57.489Z,10.80
2024-01-17T06:51:00.471Z,12.20
2024-01-17T06:56:03.530Z,11.10
2024-01-17T07:01:06.535Z,11.90
2024-01-17T07:06:10.361Z,11.40
2024-01-17T07:11:13.736Z,16.60
2024-01-17T07:16:17.159Z,11.80
2024-01-17T07:21:20.243Z,12.20
2024-01-17T07:26:23.519Z,16.70
2024-01-17T07:31:26.531Z,14.30
2024-01-17T07:36:29.923Z,13.00
2024-01-17T07:41:33.572Z,16.10
2024-01-17T07:46:36.669Z,10.50
2024-01-17T07:51:39.972Z,15.10
2024-01-17T07:56:43.820Z,14.30
2024-01-17T08:01:47.143Z,12.90
2024-01-17T08:06:50.192Z,11.70
2024-01-17T08:11:55.270Z,14.30
2024-01-17T08:16:58.566Z,13.60
2024-01-17T08:22:02.768Z,14.70
2024-01-17T08:32:08.735Z,10.50
2024-01-17T08:37:12.077Z,16.40
2024-01-17T08:42:15.611Z,10.70
2024-01-17T08:47:19.263Z,13.10
2024-01-17T08:52:22.670Z,12.50
2024-01-17T08:57:26.039Z,9.70
2024-01-17T09:02:29.389Z,11.60
2024-01-17T09:07:34.081Z,7.70
2024-01-17T09:12:37.786Z,11.80
2024-01-17T09:17:41.028Z,12.00
2024-01-17T09:22:44.773Z,10.40
2024-01-17T09:27:47.905Z,10.60
2024-01-17T09:32:51.011Z,7.90
2024-01-17T09:37:54.178Z,11.30
2024-01-17T09:43:06.672Z,12.30
2024-01-17T09:48:39.542Z,12.90
2024-01-17T09:54:06.879Z,13.60
2024-01-17T09:59:34.848Z,14.40
2024-01-17T10:04:57.981Z,15.50
2024-01-17T10:10:20.849Z,12.60
2024-01-17T10:15:46.549Z,10.70
2024-01-17T10:21:09.811Z,11.00
2024-01-17T10:26:32.854Z,11.00
2024-01-17T10:31:36.040Z,11.20
2024-01-17T10:36:40.847Z,11.00
2024-01-17T10:41:54.416Z,9.80
2024-01-17T10:46:57.955Z,8.00
2024-01-17T10:52:12.845Z,8.10
2024-01-17T10:57:17.321Z,8.00
2024-01-17T11:02:22.505Z,7.20
2024-01-17T11:07:26.663Z,8.10
2024-01-17T11:12:33.102Z,10.40
2024-01-17T11:17:38.232Z,10.50
2024-01-17T11:22:41.907Z,13.20
2024-01-17T11:28:11.084Z,10.90
2024-01-17T11:33:15.456Z,7.60
2024-01-17T11:38:25.140Z,10.60
2024-01-17T11:43:32.370Z,11.50
2024-01-17T11:48:41.105Z,10.20
2024-01-17T11:54:08.331Z,8.00
2024-01-17T11:59:31.677Z,10.20
2024-01-17T12:04:55.028Z,8.90
2024-01-17T12:15:18.331Z,9.10
2024-01-17T12:25:24.782Z,10.40
2024-01-17T12:30:28.511Z,10.40
2024-01-17T12:35:31.716Z,10.10
2024-01-17T12:40:34.662Z,8.20
2024-01-17T12:45:39.793Z,13.20
2024-01-17T12:50:56.286Z,26.20
2024-01-17T12:56:01.653Z,16.90
2024-01-17T13:01:06.396Z,12.00
2024-01-17T13:06:10.730Z,16.30
2024-01-17T13:11:18.384Z,11.00
2024-01-17T13:16:21.676Z,13.80
2024-01-17T13:21:24.855Z,14.40
2024-01-17T13:26:27.701Z,10.10
2024-01-17T13:31:31.010Z,15.00
2024-01-17T13:36:34.950Z,13.70
2024-01-17T13:46:40.775Z,7.20
2024-01-17T13:51:47.762Z,9.90
2024-01-17T13:56:54.890Z,9.30
2024-01-17T14:01:58.339Z,9.30
2024-01-17T14:07:01.352Z,9.10
2024-01-17T14:12:06.987Z,8.00
2024-01-17T14:17:10.830Z,7.50
2024-01-17T14:22:13.872Z,8.10
2024-01-17T14:27:17.525Z,8.00
2024-01-17T14:32:20.742Z,6.70
2024-01-17T14:37:24.030Z,8.40
2024-01-17T14:42:27.079Z,7.40
2024-01-17T14:47:31.479Z,9.20
2024-01-17T14:52:34.775Z,9.40
2024-01-17T14:57:38.603Z,7.70
2024-01-17T15:07:44.445Z,8.80
2024-01-17T15:12:47.412Z,8.20
2024-01-17T15:17:50.573Z,8.20
2024-01-17T15:22:53.673Z,6.80
2024-01-17T15:27:56.704Z,7.10
2024-01-17T15:32:59.584Z,13.70
2024-01-17T15:38:02.954Z,7.10
2024-01-17T15:43:05.679Z,8.40
2024-01-17T15:48:08.660Z,10.10
2024-01-17T15:53:13.456Z,8.70
2024-01-17T15:58:17.776Z,10.60
2024-01-17T16:03:21.685Z,13.90
2024-01-17T16:08:24.801Z,11.00
2024-01-17T16:13:48.532Z,6.80
2024-01-17T16:19:11.656Z,11.40
2024-01-17T16:29:17.960Z,12.70
2024-01-17T16:34:20.967Z,9.50
2024-01-17T16:39:23.915Z,11.50
2024-01-17T16:44:26.698Z,10.80
2024-01-17T16:49:30.806Z,11.90
2024-01-17T16:54:34.208Z,11.60
2024-01-17T16:59:37.295Z,12.00
2024-01-17T17:04:40.385Z,13.70
2024-01-17T17:09:43.772Z,11.10
2024-01-17T17:14:46.817Z,11.80
2024-01-17T17:19:50.006Z,10.70
2024-01-17T17:24:53.034Z,11.90
2024-01-17T17:29:56.404Z,13.50
2024-01-17T17:35:00.138Z,13.90
2024-01-17T17:40:05.931Z,16.40
2024-01-17T17:45:10.490Z,14.20
2024-01-17T17:50:14.850Z,13.10
2024-01-17T17:55:17.888Z,12.70
2024-01-17T18:00:21.973Z,13.30
2024-01-17T18:05:25.016Z,15.20
2024-01-17T18:10:48.111Z,12.40
2024-01-17T18:15:50.933Z,17.10
2024-01-17T18:20:55.447Z,13.80
2024-01-17T18:25:58.782Z,13.10
2024-01-17T18:31:03.347Z,18.50
2024-01-17T18:36:27.567Z,16.60
2024-01-17T18:41:50.700Z,15.60
2024-01-17T18:47:13.436Z,11.50
2024-01-17T18:52:36.404Z,16.30
2024-01-17T18:57:59.360Z,14.50
2024-01-17T19:03:22.277Z,14.50
2024-01-17T19:14:08.452Z,18.30
2024-01-17T19:19:31.562Z,17.50
2024-01-17T19:24:35.882Z,20.20
2024-01-17T19:29:38.982Z,19.20
2024-01-17T19:34:42.497Z,17.50
2024-01-17T19:40:05.570Z,19.60
2024-01-17T19:45:29.084Z,20.50
2024-01-17T19:50:32.458Z,16.90
2024-01-17T19:55:35.380Z,22.60
2024-01-17T20:00:38.727Z,19.70
2024-01-17T20:05:41.932Z,18.80
2024-01-17T20:10:44.920Z,16.40
2024-01-17T20:15:49.108Z,17.70
2024-01-17T20:20:52.306Z,18.40
2024-01-17T20:25:55.111Z,16.60
2024-01-17T20:30:57.959Z,23.80
2024-01-17T20:36:21.070Z,14.40
2024-01-17T20:41:24.511Z,20.40
2024-01-17T20:46:27.668Z,20.60
2024-01-17T20:51:31.391Z,25.20
2024-01-17T20:56:35.616Z,19.10
2024-01-17T21:01:39.140Z,25.20
2024-01-17T21:07:03.391Z,22.20
2024-01-17T21:12:26.534Z,25.30
2024-01-17T21:17:29.452Z,21.50
2024-01-17T21:22:32.317Z,25.00
2024-01-17T21:27:35.310Z,21.60
2024-01-17T21:32:38.509Z,19.50
2024-01-17T21:37:43.359Z,22.60
2024-01-17T21:42:46.316Z,20.40
2024-01-17T21:47:49.424Z,20.40
2024-01-17T21:53:12.334Z,21.30
2024-01-17T21:58:35.277Z,16.70
2024-01-17T22:03:38.364Z,18.50
2024-01-17T22:08:48.926Z,20.10
2024-01-17T22:13:58.259Z,17.00
2024-01-17T22:19:01.515Z,15.40
2024-01-17T22:24:04.604Z,23.80
2024-01-17T22:29:07.558Z,20.60
2024-01-17T22:34:10.916Z,19.40
2024-01-17T22:39:15.893Z,16.80
2024-01-17T22:44:21.199Z,17.30
2024-01-17T22:49:24.356Z,17.20
2024-01-17T22:54:27.820Z,14.90
2024-01-17T22:59:30.893Z,19.50
2024-01-17T23:04:34.504Z,20.10
2024-01-17T23:09:37.528Z,19.10
2024-01-17T23:14:41.196Z,17.70
2024-01-17T23:19:44.058Z,19.60
2024-01-17T23:24:47.031Z,20.20
2024-01-17T23:29:50.309Z,17.50
2024-01-17T23:34:53.268Z,19.50
2024-01-17T23:39:56.542Z,18.20
2024-01-17T23:44:59.292Z,15.70
2024-01-17T23:50:02.412Z,15.30
2024-01-17T23:55:06.284Z,18.50
